createdAt,value
2019-04-22T00:00:10.601Z,59.4
2019-04-22T00:03:12.733Z,59.5
2019-04-22T00:07:21.973Z,59.7
2019-04-22T00:10:19.173Z,59.5
2019-04-22T00:13:25.694Z,59.5
2019-04-22T00:15:55.865Z,59.6
2019-04-22T00:19:28.797Z,59.6
2019-04-22T00:22:07.502Z,60.1
2019-04-22T00:24:59.323Z,60
2019-04-22T00:28:02.175Z,59.8
2019-04-22T00:30:46.784Z,60.2
2019-04-22T00:33:38.491Z,60.5
2019-04-22T00:36:41.490Z,60.6
2019-04-22T00:39:40.793Z,60.5
2019-04-22T00:42:14.535Z,60.5
2019-04-22T00:45:32.726Z,60.4
2019-04-22T00:48:32.045Z,60.2
2019-04-22T00:51:22.310Z,61.4
2019-04-22T00:54:05.589Z,60.7
2019-04-22T00:56:53.814Z,61.2
2019-04-22T00:59:51.916Z,61
2019-04-22T01:02:53.906Z,61
2019-04-22T01:06:02.790Z,61.2
2019-04-22T01:08:57.628Z,61.5
2019-04-22T01:11:36.894Z,62.9
2019-04-22T01:14:33.841Z,62.4
2019-04-22T01:17:25.436Z,63.4
2019-04-22T01:21:22.464Z,63.3
2019-04-22T01:23:10.680Z,63.4
2019-04-22T01:25:49.190Z,63.5
2019-04-22T01:28:39.135Z,63.5
2019-04-22T01:31:10.120Z,63.3
2019-04-22T01:34:15.905Z,63.2
2019-04-22T01:37:40.321Z,63
2019-04-22T01:40:59.591Z,63.6
2019-04-22T01:44:05.473Z,64.8
2019-04-22T01:47:03.253Z,65.2
2019-04-22T01:49:45.712Z,65.7
2019-04-22T01:52:45.981Z,66.1
2019-04-22T01:56:05.198Z,67.5
2019-04-22T01:58:16.769Z,68
2019-04-22T02:01:04.358Z,69
2019-04-22T02:04:17.069Z,70
2019-04-22T02:07:23.292Z,71.8
2019-04-22T02:10:18.577Z,72
2019-04-22T02:12:59.807Z,72.8
2019-04-22T02:15:58.097Z,73.2
2019-04-22T02:19:16.955Z,72.6
2019-04-22T02:21:48.170Z,72.6
2019-04-22T02:24:50.752Z,72.5
2019-04-22T02:27:45.403Z,72
2019-04-22T02:30:49.137Z,72
2019-04-22T02:36:49.967Z,73
2019-04-22T02:42:13.621Z,71.7
2019-04-22T02:46:12.593Z,71.2
2019-04-22T02:48:33.686Z,70.8
2019-04-22T02:51:16.151Z,70.9
2019-04-22T02:54:47.007Z,70.6
2019-04-22T02:57:11.933Z,70.3
2019-04-22T03:06:15.217Z,70.5
2019-04-22T03:08:53.565Z,70.6
2019-04-22T03:11:56.345Z,70.4
2019-04-22T03:14:29.498Z,70.3
2019-04-22T03:17:15.567Z,70.2
2019-04-22T03:20:33.250Z,69.2
2019-04-22T03:29:10.466Z,64.4
2019-04-22T03:36:17.908Z,64.6
2019-04-22T03:41:27.026Z,65.1
2019-04-22T03:44:18.516Z,68
2019-04-22T03:46:29.819Z,70.1
2019-04-22T03:49:54.084Z,70.5
2019-04-22T03:52:26.578Z,73.1
2019-04-22T03:55:38.184Z,75.9
2019-04-22T03:58:47.718Z,76.6
2019-04-22T04:01:29.362Z,76.1
2019-04-22T04:04:15.020Z,76.9
2019-04-22T04:07:30.178Z,76.8
2019-04-22T04:10:09.999Z,76.3
2019-04-22T04:13:16.654Z,75.7
2019-04-22T04:15:46.014Z,76.1
2019-04-22T04:21:32.685Z,75.3
2019-04-22T04:24:53.278Z,74.7
2019-04-22T04:30:35.649Z,73.7
2019-04-22T04:33:28.632Z,74.5
2019-04-22T04:36:02.312Z,74.1
2019-04-22T04:39:04.934Z,74.2
2019-04-22T04:42:38.309Z,74.1
2019-04-22T04:45:38.009Z,74.1
2019-04-22T04:48:32.094Z,73.8
2019-04-22T04:51:06.957Z,73.8
2019-04-22T04:54:12.146Z,74
2019-04-22T04:57:04.612Z,74.5
2019-04-22T04:59:50.499Z,75.2
2019-04-22T05:02:44.447Z,76.1
2019-04-22T05:07:58.649Z,80
2019-04-22T05:14:09.088Z,80.3
2019-04-22T05:17:24.982Z,80.3
2019-04-22T05:20:04.601Z,79.7
2019-04-22T05:22:57.476Z,78.8
2019-04-22T05:25:40.168Z,78.3
2019-04-22T05:28:34.868Z,77.2
2019-04-22T05:31:21.081Z,76.7
2019-04-22T05:34:14.242Z,75.9
2019-04-22T05:37:26.879Z,75.6
2019-04-22T05:40:19.865Z,74.3
2019-04-22T05:42:49.282Z,75.3
2019-04-22T05:46:08.908Z,74.1
2019-04-22T05:48:58.521Z,72.2
2019-04-22T05:51:25.452Z,67.9
2019-04-22T05:54:38.355Z,67.2
2019-04-22T05:57:43.659Z,64.5
2019-04-22T06:01:18.318Z,60.7
2019-04-22T06:03:50.597Z,59.4
2019-04-22T06:09:24.143Z,56.8
2019-04-22T06:12:04.374Z,54.6
2019-04-22T06:15:11.671Z,55.6
2019-04-22T06:18:22.258Z,53.6
2019-04-22T06:21:10.978Z,51.8
2019-04-22T06:24:15.497Z,51.3
2019-04-22T06:27:20.687Z,51.9
2019-04-22T06:30:09.338Z,52.2
2019-04-22T06:33:14.479Z,51.4
2019-04-22T06:36:23.186Z,51.4
2019-04-22T06:38:51.223Z,51.3
2019-04-22T06:44:42.595Z,48.5
2019-04-22T06:47:58.964Z,49.1
2019-04-22T06:50:35.639Z,47.4
2019-04-22T06:53:29.540Z,46.2
2019-04-22T06:56:21.532Z,46.4
2019-04-22T06:59:11.258Z,46.2
2019-04-22T07:02:31.818Z,46.7
2019-04-22T07:05:14.196Z,44.8
2019-04-22T07:08:15.654Z,46.5
2019-04-22T07:11:05.594Z,44.4
2019-04-22T07:14:00.832Z,45
2019-04-22T07:17:01.689Z,48
2019-04-22T07:19:46.944Z,48.7
2019-04-22T07:22:39.638Z,49
2019-04-22T07:25:45.024Z,48.9
2019-04-22T07:28:48.720Z,47
2019-04-22T07:31:33.911Z,47.6
2019-04-22T07:34:38.771Z,47.9
2019-04-22T07:38:10.506Z,47.6
2019-04-22T07:40:33.910Z,46.9
2019-04-22T07:43:39.591Z,46
2019-04-22T07:46:06.672Z,45.7
2019-04-22T07:49:37.620Z,44.3
2019-04-22T07:52:09.371Z,44.1
2019-04-22T07:55:05.369Z,44.9
2019-04-22T07:58:11.569Z,43.8
2019-04-22T08:01:08.408Z,43.3
2019-04-22T08:04:22.708Z,43.9
2019-04-22T08:06:56.979Z,43.6
2019-04-22T08:10:06.659Z,43
2019-04-22T08:13:10.956Z,42.1
2019-04-22T08:15:45.264Z,42.1
2019-04-22T08:18:38.905Z,41.4
2019-04-22T08:21:29.355Z,42.4
2019-04-22T08:24:28.302Z,41.7
2019-04-22T08:27:22.209Z,40.3
2019-04-22T08:30:39.404Z,41.4
2019-04-22T08:33:15.059Z,41.1
2019-04-22T08:36:40.341Z,41.3
2019-04-22T08:39:18.541Z,41.7
2019-04-22T08:42:06.775Z,42.2
2019-04-22T08:45:38.261Z,41.5
2019-04-22T08:48:14.842Z,41.5
2019-04-22T08:53:59.649Z,43.1
2019-04-22T08:57:10.163Z,41.6
2019-04-22T08:59:48.213Z,44.7
2019-04-22T09:02:38.419Z,41.9
2019-04-22T09:05:48.194Z,43.2
2019-04-22T09:08:40.310Z,40.9
2019-04-22T09:11:41.297Z,41.9
2019-04-22T09:14:37.381Z,42.3
2019-04-22T09:20:20.270Z,41.1
2019-04-22T09:23:14.627Z,39.9
2019-04-22T09:26:28.576Z,40.1
2019-04-22T09:29:12.243Z,39.6
2019-04-22T09:32:00.140Z,38.8
2019-04-22T09:34:56.051Z,38.6
2019-04-22T09:38:18.508Z,38.8
2019-04-22T09:40:45.557Z,37.7
2019-04-22T09:43:56.174Z,39.6
2019-04-22T09:46:46.628Z,39
2019-04-22T09:49:54.693Z,38.3
2019-04-22T09:52:35.499Z,38.7
2019-04-22T09:55:49.647Z,39.3
2019-04-22T09:58:39.262Z,39.6
2019-04-22T10:01:27.456Z,38.7
2019-04-22T10:04:17.830Z,39.6
2019-04-22T10:07:15.080Z,40.4
2019-04-22T10:10:18.489Z,40
2019-04-22T10:13:18.304Z,40.7
2019-04-22T10:16:25.142Z,39.1
2019-04-22T10:21:23.869Z,39.4
2019-04-22T10:24:38.607Z,40.3
2019-04-22T10:27:20.148Z,39.7
2019-04-22T10:30:51.867Z,38.8
2019-04-22T10:33:21.628Z,38.9
2019-04-22T10:35:23.526Z,38.6
2019-04-22T10:38:04.060Z,39.1
2019-04-22T10:41:00.948Z,37.6
2019-04-22T10:43:57.113Z,39.3
2019-04-22T10:46:52.026Z,38.2
2019-04-22T10:49:46.834Z,39.1
2019-04-22T10:52:43.620Z,39.4
2019-04-22T10:55:47.231Z,39
2019-04-22T10:58:35.388Z,38.2
2019-04-22T11:01:31.620Z,40
2019-04-22T11:04:27.931Z,40.5
2019-04-22T11:07:50.280Z,39.5
2019-04-22T11:11:10.329Z,37.2
2019-04-22T11:13:15.980Z,39.6
2019-04-22T11:16:11.778Z,40.5
2019-04-22T11:19:06.057Z,40.7
2019-04-22T11:22:27.545Z,41
2019-04-22T11:25:01.535Z,39.3
2019-04-22T11:27:55.909Z,39.8
2019-04-22T11:30:50.315Z,40
2019-04-22T11:33:45.302Z,39.7
2019-04-22T11:36:42.887Z,39.7
2019-04-22T11:39:38.756Z,39
2019-04-22T11:42:34.413Z,39
2019-04-22T11:45:29.508Z,40.3
2019-04-22T11:48:24.155Z,40
2019-04-22T11:51:22.031Z,40.2
2019-04-22T11:54:19.001Z,39.4
2019-04-22T11:57:12.955Z,40.1
2019-04-22T12:00:09.194Z,39.3
2019-04-22T12:03:05.300Z,38.6
2019-04-22T12:06:01.853Z,39.3
2019-04-22T12:08:55.176Z,38.3
2019-04-22T12:11:53.980Z,40.3
2019-04-22T12:14:49.992Z,39.8
2019-04-22T12:17:46.273Z,39.9
2019-04-22T12:20:41.555Z,40
2019-04-22T12:23:37.205Z,39.4
2019-04-22T12:26:32.621Z,38.7
2019-04-22T12:29:28.916Z,39.8
2019-04-22T12:32:23.347Z,38.9
2019-04-22T12:35:19.902Z,39.8
2019-04-22T12:38:20.208Z,39.1
2019-04-22T12:41:15.859Z,39.6
2019-04-22T12:44:07.301Z,39.6
2019-04-22T12:47:07.851Z,40.4
2019-04-22T12:50:28.205Z,39.3
2019-04-22T12:53:11.276Z,40
2019-04-22T12:55:50.463Z,40.4
2019-04-22T12:58:47.749Z,41.3
2019-04-22T13:01:40.297Z,41.3
2019-04-22T13:04:38.575Z,39.5
2019-04-22T13:07:33.547Z,39
2019-04-22T13:11:00.694Z,38.8
2019-04-22T13:13:27.279Z,38.4
2019-04-22T13:16:21.135Z,39
2019-04-22T13:19:23.393Z,38.7
2019-04-22T13:22:13.002Z,39.5
2019-04-22T13:25:10.187Z,39.4
2019-04-22T13:28:05.080Z,40.7
2019-04-22T13:31:03.866Z,39.6
2019-04-22T13:34:03.978Z,40.1
2019-04-22T13:36:51.329Z,38.7
2019-04-22T13:39:47.470Z,38.9
2019-04-22T13:42:44.767Z,38.6
2019-04-22T13:45:40.625Z,39.4
2019-04-22T13:49:39.998Z,39
2019-04-22T13:53:28.649Z,40.2
2019-04-22T14:00:20.604Z,39.2
2019-04-22T14:03:13.603Z,39.3
2019-04-22T14:06:10.983Z,38.2
2019-04-22T14:09:07.585Z,39.3
2019-04-22T14:12:12.157Z,39.8
2019-04-22T14:15:00.350Z,39.3
2019-04-22T14:17:54.773Z,39.2
2019-04-22T14:20:51.238Z,39.3
2019-04-22T14:23:46.864Z,38.9
2019-04-22T14:27:25.252Z,39.3
2019-04-22T14:29:37.838Z,39.9
2019-04-22T14:32:37.604Z,39.8
2019-04-22T14:35:29.580Z,38.8
2019-04-22T14:38:25.834Z,38.7
2019-04-22T14:42:13.539Z,38.5
2019-04-22T14:45:57.902Z,38.3
2019-04-22T14:48:49.229Z,38.7
2019-04-22T14:51:20.343Z,39
2019-04-22T14:54:04.950Z,39.1
2019-04-22T14:56:02.418Z,39.3
2019-04-22T14:58:56.735Z,39.5
2019-04-22T15:01:52.093Z,38.5
2019-04-22T15:04:48.084Z,39.4
2019-04-22T15:07:44.632Z,38.7
2019-04-22T15:10:40.042Z,39.2
2019-04-22T15:13:35.736Z,39.5
2019-04-22T15:16:31.905Z,37.8
2019-04-22T15:19:27.706Z,39.2
2019-04-22T15:22:23.266Z,38
2019-04-22T15:25:20.426Z,38.1
2019-04-22T15:28:15.478Z,38.7
2019-04-22T15:31:11.278Z,38.5
2019-04-22T15:34:06.886Z,38.1
2019-04-22T15:37:02.446Z,38.9
2019-04-22T15:39:58.728Z,39.3
2019-04-22T15:42:55.110Z,38.4
2019-04-22T15:45:49.007Z,39.5
2019-04-22T15:48:44.252Z,39.4
2019-04-22T15:51:42.965Z,39.2
2019-04-22T15:54:37.812Z,39
2019-04-22T15:57:38.087Z,40
2019-04-22T16:00:59.802Z,40.7
2019-04-22T16:03:24.907Z,39.5
2019-04-22T16:06:22.191Z,39.7
2019-04-22T16:09:17.430Z,40.1
2019-04-22T16:12:39.229Z,39.8
2019-04-22T16:15:13.244Z,39.8
2019-04-22T16:18:11.310Z,39.9
2019-04-22T16:21:00.713Z,39.4
2019-04-22T16:23:56.628Z,40
2019-04-22T16:26:52.268Z,39.9
2019-04-22T16:29:47.535Z,40
2019-04-22T16:32:43.659Z,40.3
2019-04-22T16:35:37.462Z,40.6
2019-04-22T16:38:35.051Z,39.6
2019-04-22T16:41:30.737Z,40.1
2019-04-22T16:44:26.906Z,40.5
2019-04-22T16:47:19.900Z,40.5
2019-04-22T16:50:16.519Z,40.5
2019-04-22T16:53:14.417Z,40.3
2019-04-22T16:56:08.964Z,41.5
2019-04-22T16:59:02.819Z,41.1
2019-04-22T17:02:00.868Z,41
2019-04-22T17:04:56.030Z,41
2019-04-22T17:07:52.114Z,41.2
2019-04-22T17:10:46.563Z,41.1
2019-04-22T17:13:47.986Z,41.4
2019-04-22T17:16:38.811Z,41.7
2019-04-22T17:19:35.579Z,42
2019-04-22T17:22:31.511Z,41.7
2019-04-22T17:25:26.692Z,41.8
2019-04-22T17:28:19.940Z,42.1
2019-04-22T17:31:18.774Z,42.1
2019-04-22T17:34:13.645Z,42.6
2019-04-22T17:37:29.716Z,41.9
2019-04-22T17:40:38.464Z,42
2019-04-22T17:43:58.457Z,42.2
2019-04-22T17:46:48.110Z,42.3
2019-04-22T17:50:11.354Z,42.2
2019-04-22T17:56:01.919Z,42.8
2019-04-22T17:59:02.046Z,42.7
2019-04-22T18:01:48.442Z,42.9
2019-04-22T18:03:52.984Z,43.4
2019-04-22T18:07:48.693Z,43.5
2019-04-22T18:11:01.395Z,44
2019-04-22T18:13:31.719Z,44.1
2019-04-22T18:16:29.266Z,44.4
2019-04-22T18:19:19.163Z,44.9
2019-04-22T18:21:59.319Z,44.9
2019-04-22T18:24:30.234Z,45
2019-04-22T18:28:29.938Z,44.9
2019-04-22T18:30:41.982Z,44.8
2019-04-22T18:33:23.800Z,44.9
2019-04-22T18:36:36.920Z,45
2019-04-22T18:39:56.727Z,45
2019-04-22T18:42:30.933Z,45.5
2019-04-22T18:45:59.596Z,45.6
2019-04-22T18:48:12.050Z,45.7
2019-04-22T18:51:46.100Z,45.9
2019-04-22T18:53:59.946Z,46.3
2019-04-22T18:57:14.994Z,46.4
2019-04-22T18:59:31.361Z,46.7
2019-04-22T19:02:19.268Z,46.5
2019-04-22T19:05:44.741Z,47
2019-04-22T19:09:14.917Z,47.3
2019-04-22T19:12:21.960Z,47.4
2019-04-22T19:15:15.903Z,48.3
2019-04-22T19:18:10.387Z,48.9
2019-04-22T19:21:01.076Z,49
2019-04-22T19:23:44.715Z,48.7
2019-04-22T19:29:36.672Z,48.8
2019-04-22T19:32:30.649Z,49.6
2019-04-22T19:35:12.532Z,49.9
2019-04-22T19:38:03.217Z,50.2
2019-04-22T19:41:36.160Z,50.4
2019-04-22T19:44:13.024Z,50.8
2019-04-22T19:47:12.925Z,51.5
2019-04-22T19:50:22.558Z,52.1
2019-04-22T19:53:09.567Z,52.2
2019-04-22T19:55:49.136Z,52.1
2019-04-22T19:58:37.089Z,51.8
2019-04-22T20:01:20.214Z,52.1
2019-04-22T20:04:52.292Z,51.9
2019-04-22T20:07:31.343Z,53
2019-04-22T20:10:29.369Z,52.6
2019-04-22T20:13:23.975Z,52.6
2019-04-22T20:15:55.800Z,52.6
2019-04-22T20:19:28.724Z,52.5
2019-04-22T20:22:17.312Z,52.7
2019-04-22T20:24:20.447Z,53.2
2019-04-22T20:28:05.619Z,54
2019-04-22T20:31:01.367Z,53.7
2019-04-22T20:33:55.853Z,54.4
2019-04-22T20:37:14.963Z,53.6
2019-04-22T20:39:43.482Z,53.7
2019-04-22T20:43:07.077Z,54.4
2019-04-22T20:45:34.652Z,54
2019-04-22T20:48:05.700Z,54.3
2019-04-22T20:54:15.636Z,55
2019-04-22T20:56:48.886Z,55.3
2019-04-22T20:59:55.346Z,54.9
2019-04-22T21:02:46.026Z,56
2019-04-22T21:05:33.804Z,57.4
2019-04-22T21:09:04.557Z,56.6
2019-04-22T21:11:29.419Z,56.5
2019-04-22T21:14:38.434Z,56.5
2019-04-22T21:17:44.516Z,57.7
2019-04-22T21:20:56.020Z,57
2019-04-22T21:23:26.325Z,56.5
2019-04-22T21:26:12.826Z,56.9
2019-04-22T21:29:12.298Z,57.3
2019-04-22T21:32:23.330Z,57
2019-04-22T21:35:25.829Z,57.6
2019-04-22T21:38:26.253Z,57.7
2019-04-22T21:41:04.602Z,57.9
2019-04-22T21:44:10.155Z,57.6
2019-04-22T21:47:09.838Z,57.3
2019-04-22T21:50:20.823Z,57.6
2019-04-22T21:53:14.044Z,57.5
2019-04-22T21:56:11.048Z,57.2
2019-04-22T21:58:50.453Z,57.2
2019-04-22T22:01:56.551Z,57.2
2019-04-22T22:04:28.641Z,57.7
2019-04-22T22:06:55.204Z,57.6
2019-04-22T22:10:21.004Z,57.5
2019-04-22T22:13:15.380Z,58.2
2019-04-22T22:16:09.884Z,58
2019-04-22T22:18:55.142Z,58.2
2019-04-22T22:22:58.104Z,58.6
2019-04-22T22:24:56.242Z,58.5
2019-04-22T22:27:53.159Z,58.4
2019-04-22T22:31:21.758Z,58.4
2019-04-22T22:33:41.598Z,58.8
2019-04-22T22:36:33.097Z,58.4
2019-04-22T22:39:13.728Z,58.7
2019-04-22T22:41:18.541Z,58.9
2019-04-22T22:44:38.136Z,59
2019-04-22T22:47:44.022Z,58.7
2019-04-22T22:51:02.915Z,59.3
2019-04-22T22:54:29.731Z,59.4
2019-04-22T22:57:16.668Z,59.5
2019-04-22T23:00:03.521Z,59.1
2019-04-22T23:03:16.620Z,59.1
2019-04-22T23:05:56.774Z,59.7
2019-04-22T23:08:55.377Z,59.8
2019-04-22T23:12:03.100Z,59.9
2019-04-22T23:14:36.569Z,60.7
2019-04-22T23:16:51.235Z,61.2
2019-04-22T23:19:15.724Z,61.7
2019-04-22T23:23:07.330Z,62.3
2019-04-22T23:26:16.850Z,63.7
2019-04-22T23:28:42.847Z,65
2019-04-22T23:31:31.373Z,65.6
2019-04-22T23:34:38.670Z,65.6
2019-04-22T23:37:27.616Z,66
2019-04-22T23:40:53.718Z,65.6
2019-04-22T23:43:55.121Z,66.6
2019-04-22T23:46:26.941Z,66.5
2019-04-22T23:49:07.921Z,66.7
2019-04-22T23:52:28.283Z,66.7
2019-04-22T23:55:25.767Z,67.6
2019-04-22T23:58:16.350Z,67.7
